sensor_id;sensor_type;location;lat;lon;timestamp;P1;durP1;ratioP1;P2;durP2;ratioP2
25359;SDS011;13311;51.386;0.016;2023-02-17T00:02:55;4.95;;;2.10;;
25359;SDS011;13311;51.386;0.016;2023-02-17T00:07:57;2.92;;;1.98;;
25359;SDS011;13311;51.386;0.016;2023-02-17T00:12:58;1.88;;;1.55;;
25359;SDS011;13311;51.386;0.016;2023-02-17T00:17:58;1.92;;;1.60;;
25359;SDS011;13311;51.386;0.016;2023-02-17T00:22:59;3.50;;;1.40;;
25359;SDS011;13311;51.386;0.016;2023-02-17T00:28:00;2.05;;;1.67;;
25359;SDS011;13311;51.386;0.016;2023-02-17T00:33:00;3.38;;;1.58;;
25359;SDS011;13311;51.386;0.016;2023-02-17T00:38:01;2.70;;;1.40;;
25359;SDS011;13311;51.386;0.016;2023-02-17T00:43:02;1.60;;;1.13;;
25359;SDS011;13311;51.386;0.016;2023-02-17T00:48:03;8.10;;;2.05;;
25359;SDS011;13311;51.386;0.016;2023-02-17T00:53:04;4.40;;;1.75;;
25359;SDS011;13311;51.386;0.016;2023-02-17T00:58:04;3.72;;;2.13;;
25359;SDS011;13311;51.386;0.016;2023-02-17T01:03:05;5.13;;;2.33;;
25359;SDS011;13311;51.386;0.016;2023-02-17T01:08:06;3.63;;;1.60;;
25359;SDS011;13311;51.386;0.016;2023-02-17T01:13:07;2.70;;;1.63;;
25359;SDS011;13311;51.386;0.016;2023-02-17T01:18:08;1.95;;;1.25;;
25359;SDS011;13311;51.386;0.016;2023-02-17T01:23:09;4.15;;;1.73;;
25359;SDS011;13311;51.386;0.016;2023-02-17T01:28:14;2.45;;;1.60;;
25359;SDS011;13311;51.386;0.016;2023-02-17T01:33:18;3.53;;;2.03;;
25359;SDS011;13311;51.386;0.016;2023-02-17T01:38:18;3.17;;;2.00;;
25359;SDS011;13311;51.386;0.016;2023-02-17T01:43:19;4.68;;;1.58;;
25359;SDS011;13311;51.386;0.016;2023-02-17T01:48:21;4.53;;;1.92;;
25359;SDS011;13311;51.386;0.016;2023-02-17T01:53:31;5.27;;;2.40;;
25359;SDS011;13311;51.386;0.016;2023-02-17T01:58:40;2.08;;;1.70;;
25359;SDS011;13311;51.386;0.016;2023-02-17T02:03:46;4.07;;;1.88;;
25359;SDS011;13311;51.386;0.016;2023-02-17T02:08:51;3.00;;;2.47;;
25359;SDS011;13311;51.386;0.016;2023-02-17T02:14:07;5.55;;;2.42;;
25359;SDS011;13311;51.386;0.016;2023-02-17T02:19:17;4.07;;;2.17;;
25359;SDS011;13311;51.386;0.016;2023-02-17T02:36:08;4.57;;;2.40;;
25359;SDS011;13311;51.386;0.016;2023-02-17T02:41:18;3.28;;;1.58;;
25359;SDS011;13311;51.386;0.016;2023-02-17T02:46:25;5.15;;;1.92;;
25359;SDS011;13311;51.386;0.016;2023-02-17T02:51:35;4.82;;;2.22;;
25359;SDS011;13311;51.386;0.016;2023-02-17T02:57:12;4.35;;;2.63;;
25359;SDS011;13311;51.386;0.016;2023-02-17T03:03:01;4.15;;;2.05;;
25359;SDS011;13311;51.386;0.016;2023-02-17T03:13:54;4.57;;;2.03;;
25359;SDS011;13311;51.386;0.016;2023-02-17T03:18:54;8.23;;;1.85;;
25359;SDS011;13311;51.386;0.016;2023-02-17T03:23:55;3.60;;;1.48;;
25359;SDS011;13311;51.386;0.016;2023-02-17T03:28:56;2.72;;;2.00;;
25359;SDS011;13311;51.386;0.016;2023-02-17T03:33:57;3.38;;;2.13;;
25359;SDS011;13311;51.386;0.016;2023-02-17T03:38:58;6.28;;;1.80;;
25359;SDS011;13311;51.386;0.016;2023-02-17T03:43:59;1.75;;;1.25;;
25359;SDS011;13311;51.386;0.016;2023-02-17T03:49:00;2.42;;;1.40;;
25359;SDS011;13311;51.386;0.016;2023-02-17T03:54:01;3.08;;;1.20;;
25359;SDS011;13311;51.386;0.016;2023-02-17T03:59:02;3.13;;;1.45;;
25359;SDS011;13311;51.386;0.016;2023-02-17T04:04:03;1.50;;;1.08;;
25359;SDS011;13311;51.386;0.016;2023-02-17T04:09:04;1.80;;;1.63;;
25359;SDS011;13311;51.386;0.016;2023-02-17T04:14:04;1.85;;;1.42;;
25359;SDS011;13311;51.386;0.016;2023-02-17T04:19:05;2.65;;;1.60;;
25359;SDS011;13311;51.386;0.016;2023-02-17T04:24:06;2.58;;;1.23;;
25359;SDS011;13311;51.386;0.016;2023-02-17T04:29:07;2.60;;;1.23;;
25359;SDS011;13311;51.386;0.016;2023-02-17T04:34:08;3.33;;;1.40;;
25359;SDS011;13311;51.386;0.016;2023-02-17T04:39:08;1.75;;;1.20;;
25359;SDS011;13311;51.386;0.016;2023-02-17T04:44:09;2.42;;;1.08;;
25359;SDS011;13311;51.386;0.016;2023-02-17T04:49:10;2.10;;;0.80;;
25359;SDS011;13311;51.386;0.016;2023-02-17T04:54:10;1.60;;;0.80;;
25359;SDS011;13311;51.386;0.016;2023-02-17T04:59:11;1.35;;;0.77;;
25359;SDS011;13311;51.386;0.016;2023-02-17T05:04:12;2.72;;;0.90;;
25359;SDS011;13311;51.386;0.016;2023-02-17T05:09:13;1.98;;;1.25;;
25359;SDS011;13311;51.386;0.016;2023-02-17T05:14:13;1.05;;;0.50;;
25359;SDS011;13311;51.386;0.016;2023-02-17T05:19:14;0.57;;;0.40;;
25359;SDS011;13311;51.386;0.016;2023-02-17T05:24:15;0.85;;;0.50;;
25359;SDS011;13311;51.386;0.016;2023-02-17T05:29:16;0.85;;;0.47;;
25359;SDS011;13311;51.386;0.016;2023-02-17T05:34:16;0.57;;;0.38;;
25359;SDS011;13311;51.386;0.016;2023-02-17T05:39:17;1.85;;;0.50;;
25359;SDS011;13311;51.386;0.016;2023-02-17T05:44:18;0.60;;;0.30;;
25359;SDS011;13311;51.386;0.016;2023-02-17T05:49:19;1.45;;;0.40;;
25359;SDS011;13311;51.386;0.016;2023-02-17T05:54:19;1.40;;;0.50;;
25359;SDS011;13311;51.386;0.016;2023-02-17T05:59:20;1.75;;;0.40;;
25359;SDS011;13311;51.386;0.016;2023-02-17T06:04:21;0.32;;;0.30;;
25359;SDS011;13311;51.386;0.016;2023-02-17T06:09:22;0.52;;;0.20;;
25359;SDS011;13311;51.386;0.016;2023-02-17T06:14:23;1.23;;;0.30;;
25359;SDS011;13311;51.386;0.016;2023-02-17T06:19:23;0.73;;;0.40;;
25359;SDS011;13311;51.386;0.016;2023-02-17T06:24:24;0.50;;;0.20;;
25359;SDS011;13311;51.386;0.016;2023-02-17T06:29:25;1.13;;;0.43;;
25359;SDS011;13311;51.386;0.016;2023-02-17T06:34:26;0.95;;;0.30;;
25359;SDS011;13311;51.386;0.016;2023-02-17T06:39:27;0.43;;;0.22;;
25359;SDS011;13311;51.386;0.016;2023-02-17T06:44:28;0.70;;;0.20;;
25359;SDS011;13311;51.386;0.016;2023-02-17T06:49:30;0.88;;;0.30;;
25359;SDS011;13311;51.386;0.016;2023-02-17T06:54:30;1.17;;;0.38;;
25359;SDS011;13311;51.386;0.016;2023-02-17T06:59:31;0.45;;;0.30;;
25359;SDS011;13311;51.386;0.016;2023-02-17T07:04:32;2.50;;;0.32;;
25359;SDS011;13311;51.386;0.016;2023-02-17T07:09:33;0.57;;;0.30;;
25359;SDS011;13311;51.386;0.016;2023-02-17T07:14:34;2.88;;;0.50;;
25359;SDS011;13311;51.386;0.016;2023-02-17T07:19:35;3.30;;;0.40;;
25359;SDS011;13311;51.386;0.016;2023-02-17T07:24:36;0.30;;;0.30;;
25359;SDS011;13311;51.386;0.016;2023-02-17T07:29:36;0.63;;;0.30;;
25359;SDS011;13311;51.386;0.016;2023-02-17T07:34:37;2.50;;;0.50;;
25359;SDS011;13311;51.386;0.016;2023-02-17T07:39:38;0.52;;;0.20;;
25359;SDS011;13311;51.386;0.016;2023-02-17T07:44:38;1.15;;;0.30;;
25359;SDS011;13311;51.386;0.016;2023-02-17T07:49:39;1.08;;;0.60;;
25359;SDS011;13311;51.386;0.016;2023-02-17T07:54:40;0.60;;;0.30;;
25359;SDS011;13311;51.386;0.016;2023-02-17T07:59:40;0.88;;;0.40;;
25359;SDS011;13311;51.386;0.016;2023-02-17T08:04:41;1.13;;;0.40;;
25359;SDS011;13311;51.386;0.016;2023-02-17T08:09:42;1.45;;;0.68;;
25359;SDS011;13311;51.386;0.016;2023-02-17T08:15:01;1.88;;;0.60;;
25359;SDS011;13311;51.386;0.016;2023-02-17T08:20:04;0.70;;;0.38;;
25359;SDS011;13311;51.386;0.016;2023-02-17T08:25:06;1.00;;;0.30;;
25359;SDS011;13311;51.386;0.016;2023-02-17T08:30:07;1.30;;;0.25;;
25359;SDS011;13311;51.386;0.016;2023-02-17T08:35:08;3.42;;;0.40;;
25359;SDS011;13311;51.386;0.016;2023-02-17T08:40:09;1.17;;;0.40;;
25359;SDS011;13311;51.386;0.016;2023-02-17T08:45:12;0.68;;;0.47;;
25359;SDS011;13311;51.386;0.016;2023-02-17T08:50:14;0.68;;;0.40;;
25359;SDS011;13311;51.386;0.016;2023-02-17T08:55:15;0.20;;;0.20;;
25359;SDS011;13311;51.386;0.016;2023-02-17T09:00:18;0.40;;;0.20;;
25359;SDS011;13311;51.386;0.016;2023-02-17T09:05:18;0.35;;;0.20;;
25359;SDS011;13311;51.386;0.016;2023-02-17T09:10:19;0.82;;;0.17;;
25359;SDS011;13311;51.386;0.016;2023-02-17T09:15:20;0.98;;;0.20;;
25359;SDS011;13311;51.386;0.016;2023-02-17T09:20:21;1.10;;;0.30;;
25359;SDS011;13311;51.386;0.016;2023-02-17T09:25:22;1.50;;;0.63;;
25359;SDS011;13311;51.386;0.016;2023-02-17T09:30:23;0.52;;;0.10;;
25359;SDS011;13311;51.386;0.016;2023-02-17T09:35:24;2.28;;;0.32;;
25359;SDS011;13311;51.386;0.016;2023-02-17T09:40:35;0.30;;;0.20;;
25359;SDS011;13311;51.386;0.016;2023-02-17T09:45:43;1.30;;;0.45;;
25359;SDS011;13311;51.386;0.016;2023-02-17T09:56:02;0.63;;;0.25;;
25359;SDS011;13311;51.386;0.016;2023-02-17T10:01:10;0.60;;;0.43;;
25359;SDS011;13311;51.386;0.016;2023-02-17T10:06:22;0.50;;;0.10;;
25359;SDS011;13311;51.386;0.016;2023-02-17T10:11:32;0.10;;;0.10;;
25359;SDS011;13311;51.386;0.016;2023-02-17T10:16:39;0.77;;;0.50;;
25359;SDS011;13311;51.386;0.016;2023-02-17T10:21:50;6.43;;;0.80;;
25359;SDS011;13311;51.386;0.016;2023-02-17T10:32:25;0.17;;;0.15;;
25359;SDS011;13311;51.386;0.016;2023-02-17T10:37:28;1.27;;;0.20;;
25359;SDS011;13311;51.386;0.016;2023-02-17T10:43:01;2.08;;;0.25;;
25359;SDS011;13311;51.386;0.016;2023-02-17T10:48:06;3.50;;;0.40;;
25359;SDS011;13311;51.386;0.016;2023-02-17T10:53:32;5.07;;;0.60;;
25359;SDS011;13311;51.386;0.016;2023-02-17T11:04:08;0.40;;;0.20;;
25359;SDS011;13311;51.386;0.016;2023-02-17T11:09:24;3.53;;;0.57;;
25359;SDS011;13311;51.386;0.016;2023-02-17T11:14:31;5.45;;;0.90;;
25359;SDS011;13311;51.386;0.016;2023-02-17T11:19:35;3.13;;;0.57;;
25359;SDS011;13311;51.386;0.016;2023-02-17T11:24:36;1.65;;;0.40;;
25359;SDS011;13311;51.386;0.016;2023-02-17T11:29:37;4.05;;;0.57;;
25359;SDS011;13311;51.386;0.016;2023-02-17T11:34:39;0.85;;;0.38;;
25359;SDS011;13311;51.386;0.016;2023-02-17T11:39:43;1.40;;;0.40;;
25359;SDS011;13311;51.386;0.016;2023-02-17T11:44:48;2.08;;;0.65;;
25359;SDS011;13311;51.386;0.016;2023-02-17T11:49:59;2.15;;;0.43;;
25359;SDS011;13311;51.386;0.016;2023-02-17T11:55:33;1.50;;;0.63;;
25359;SDS011;13311;51.386;0.016;2023-02-17T12:11:43;1.45;;;0.40;;
25359;SDS011;13311;51.386;0.016;2023-02-17T12:17:03;2.97;;;0.30;;
25359;SDS011;13311;51.386;0.016;2023-02-17T12:22:19;1.83;;;0.65;;
25359;SDS011;13311;51.386;0.016;2023-02-17T12:27:42;0.28;;;0.28;;
25359;SDS011;13311;51.386;0.016;2023-02-17T12:38:10;2.05;;;0.70;;
25359;SDS011;13311;51.386;0.016;2023-02-17T12:43:34;0.35;;;0.30;;
25359;SDS011;13311;51.386;0.016;2023-02-17T12:48:43;0.82;;;0.50;;
25359;SDS011;13311;51.386;0.016;2023-02-17T12:53:57;0.55;;;0.40;;
25359;SDS011;13311;51.386;0.016;2023-02-17T12:59:17;0.93;;;0.65;;
25359;SDS011;13311;51.386;0.016;2023-02-17T13:04:25;1.58;;;0.73;;
25359;SDS011;13311;51.386;0.016;2023-02-17T13:09:29;1.33;;;0.40;;
25359;SDS011;13311;51.386;0.016;2023-02-17T13:14:40;0.60;;;0.40;;
25359;SDS011;13311;51.386;0.016;2023-02-17T13:25:10;2.20;;;0.68;;
25359;SDS011;13311;51.386;0.016;2023-02-17T13:30:41;1.95;;;0.68;;
25359;SDS011;13311;51.386;0.016;2023-02-17T13:35:44;0.65;;;0.40;;
25359;SDS011;13311;51.386;0.016;2023-02-17T13:40:45;2.17;;;0.40;;
25359;SDS011;13311;51.386;0.016;2023-02-17T13:45:48;2.03;;;0.60;;
25359;SDS011;13311;51.386;0.016;2023-02-17T13:50:59;3.97;;;0.75;;
25359;SDS011;13311;51.386;0.016;2023-02-17T14:01:13;1.42;;;0.50;;
25359;SDS011;13311;51.386;0.016;2023-02-17T14:06:25;7.22;;;0.88;;
25359;SDS011;13311;51.386;0.016;2023-02-17T14:11:34;2.85;;;0.60;;
25359;SDS011;13311;51.386;0.016;2023-02-17T14:16:36;1.17;;;0.40;;
25359;SDS011;13311;51.386;0.016;2023-02-17T14:21:42;2.22;;;0.68;;
25359;SDS011;13311;51.386;0.016;2023-02-17T14:27:12;1.67;;;0.88;;
25359;SDS011;13311;51.386;0.016;2023-02-17T14:37:35;5.20;;;0.60;;
25359;SDS011;13311;51.386;0.016;2023-02-17T14:42:36;0.73;;;0.50;;
25359;SDS011;13311;51.386;0.016;2023-02-17T14:47:36;1.88;;;0.40;;
25359;SDS011;13311;51.386;0.016;2023-02-17T14:52:39;3.20;;;0.45;;
25359;SDS011;13311;51.386;0.016;2023-02-17T14:57:47;1.33;;;0.40;;
25359;SDS011;13311;51.386;0.016;2023-02-17T15:02:47;3.38;;;0.70;;
25359;SDS011;13311;51.386;0.016;2023-02-17T15:07:50;0.75;;;0.50;;
25359;SDS011;13311;51.386;0.016;2023-02-17T15:12:51;2.17;;;0.55;;
25359;SDS011;13311;51.386;0.016;2023-02-17T15:17:52;0.43;;;0.30;;
25359;SDS011;13311;51.386;0.016;2023-02-17T15:22:52;0.65;;;0.55;;
25359;SDS011;13311;51.386;0.016;2023-02-17T15:27:54;3.15;;;0.70;;
25359;SDS011;13311;51.386;0.016;2023-02-17T15:32:55;0.35;;;0.20;;
25359;SDS011;13311;51.386;0.016;2023-02-17T15:52:46;1.83;;;0.80;;
25359;SDS011;13311;51.386;0.016;2023-02-17T15:57:48;1.42;;;0.60;;
25359;SDS011;13311;51.386;0.016;2023-02-17T16:02:53;2.88;;;0.80;;
25359;SDS011;13311;51.386;0.016;2023-02-17T16:07:54;0.60;;;0.50;;
25359;SDS011;13311;51.386;0.016;2023-02-17T16:12:56;0.88;;;0.55;;
25359;SDS011;13311;51.386;0.016;2023-02-17T16:17:58;0.57;;;0.40;;
25359;SDS011;13311;51.386;0.016;2023-02-17T16:22:59;1.90;;;0.77;;
25359;SDS011;13311;51.386;0.016;2023-02-17T16:28:01;1.45;;;0.45;;
25359;SDS011;13311;51.386;0.016;2023-02-17T16:33:02;0.85;;;0.55;;
25359;SDS011;13311;51.386;0.016;2023-02-17T16:38:07;0.50;;;0.38;;
25359;SDS011;13311;51.386;0.016;2023-02-17T16:43:19;2.03;;;0.60;;
25359;SDS011;13311;51.386;0.016;2023-02-17T16:48:23;0.88;;;0.43;;
25359;SDS011;13311;51.386;0.016;2023-02-17T16:53:27;1.10;;;0.60;;
25359;SDS011;13311;51.386;0.016;2023-02-17T16:58:27;0.60;;;0.50;;
25359;SDS011;13311;51.386;0.016;2023-02-17T17:03:28;1.20;;;0.60;;
25359;SDS011;13311;51.386;0.016;2023-02-17T17:08:29;1.27;;;0.75;;
25359;SDS011;13311;51.386;0.016;2023-02-17T17:13:29;1.30;;;0.57;;
25359;SDS011;13311;51.386;0.016;2023-02-17T17:18:30;0.50;;;0.30;;
25359;SDS011;13311;51.386;0.016;2023-02-17T17:23:31;2.42;;;1.77;;
25359;SDS011;13311;51.386;0.016;2023-02-17T17:28:31;1.38;;;0.68;;
25359;SDS011;13311;51.386;0.016;2023-02-17T17:33:32;0.73;;;0.40;;
25359;SDS011;13311;51.386;0.016;2023-02-17T17:38:33;0.57;;;0.50;;
25359;SDS011;13311;51.386;0.016;2023-02-17T17:43:34;2.03;;;0.55;;
25359;SDS011;13311;51.386;0.016;2023-02-17T17:48:34;1.55;;;0.85;;
25359;SDS011;13311;51.386;0.016;2023-02-17T17:53:35;1.73;;;0.70;;
25359;SDS011;13311;51.386;0.016;2023-02-17T17:58:36;0.82;;;0.60;;
25359;SDS011;13311;51.386;0.016;2023-02-17T18:03:38;3.50;;;1.15;;
25359;SDS011;13311;51.386;0.016;2023-02-17T18:08:40;1.50;;;0.50;;
25359;SDS011;13311;51.386;0.016;2023-02-17T18:13:43;1.20;;;0.70;;
25359;SDS011;13311;51.386;0.016;2023-02-17T18:18:49;1.42;;;1.05;;
25359;SDS011;13311;51.386;0.016;2023-02-17T18:23:50;1.55;;;1.00;;
25359;SDS011;13311;51.386;0.016;2023-02-17T18:28:51;1.65;;;1.00;;
25359;SDS011;13311;51.386;0.016;2023-02-17T18:33:52;2.45;;;1.23;;
25359;SDS011;13311;51.386;0.016;2023-02-17T18:38:53;1.45;;;1.05;;
25359;SDS011;13311;51.386;0.016;2023-02-17T18:43:55;5.10;;;2.45;;
25359;SDS011;13311;51.386;0.016;2023-02-17T18:48:58;2.50;;;1.58;;
25359;SDS011;13311;51.386;0.016;2023-02-17T18:53:59;3.83;;;1.58;;
25359;SDS011;13311;51.386;0.016;2023-02-17T18:59:01;2.17;;;1.73;;
25359;SDS011;13311;51.386;0.016;2023-02-17T19:04:02;4.30;;;1.80;;
25359;SDS011;13311;51.386;0.016;2023-02-17T19:09:04;2.28;;;1.55;;
25359;SDS011;13311;51.386;0.016;2023-02-17T19:14:04;3.80;;;2.00;;
25359;SDS011;13311;51.386;0.016;2023-02-17T19:19:05;1.42;;;1.25;;
25359;SDS011;13311;51.386;0.016;2023-02-17T19:24:06;1.90;;;1.17;;
25359;SDS011;13311;51.386;0.016;2023-02-17T19:29:08;3.70;;;2.08;;
25359;SDS011;13311;51.386;0.016;2023-02-17T19:34:09;4.72;;;2.17;;
25359;SDS011;13311;51.386;0.016;2023-02-17T19:39:10;2.00;;;1.70;;
25359;SDS011;13311;51.386;0.016;2023-02-17T19:44:11;3.92;;;1.88;;
25359;SDS011;13311;51.386;0.016;2023-02-17T19:49:12;3.85;;;2.40;;
25359;SDS011;13311;51.386;0.016;2023-02-17T19:54:13;2.80;;;2.03;;
25359;SDS011;13311;51.386;0.016;2023-02-17T19:59:14;4.82;;;2.53;;
25359;SDS011;13311;51.386;0.016;2023-02-17T20:04:15;4.68;;;3.38;;
25359;SDS011;13311;51.386;0.016;2023-02-17T20:09:18;3.15;;;2.65;;
25359;SDS011;13311;51.386;0.016;2023-02-17T20:14:20;4.32;;;3.10;;
25359;SDS011;13311;51.386;0.016;2023-02-17T20:19:21;4.20;;;3.50;;
25359;SDS011;13311;51.386;0.016;2023-02-17T20:24:22;8.48;;;4.95;;
25359;SDS011;13311;51.386;0.016;2023-02-17T20:29:22;11.45;;;8.13;;
25359;SDS011;13311;51.386;0.016;2023-02-17T20:39:36;20.65;;;13.93;;
25359;SDS011;13311;51.386;0.016;2023-02-17T20:44:41;20.98;;;14.82;;
25359;SDS011;13311;51.386;0.016;2023-02-17T20:49:42;16.85;;;14.00;;
25359;SDS011;13311;51.386;0.016;2023-02-17T20:54:42;21.30;;;14.32;;
25359;SDS011;13311;51.386;0.016;2023-02-17T20:59:43;21.35;;;13.88;;
25359;SDS011;13311;51.386;0.016;2023-02-17T21:04:44;21.38;;;15.50;;
25359;SDS011;13311;51.386;0.016;2023-02-17T21:09:45;18.63;;;16.23;;
25359;SDS011;13311;51.386;0.016;2023-02-17T21:14:46;25.98;;;16.65;;
25359;SDS011;13311;51.386;0.016;2023-02-17T21:19:46;23.92;;;18.92;;
25359;SDS011;13311;51.386;0.016;2023-02-17T21:24:47;21.88;;;14.95;;
25359;SDS011;13311;51.386;0.016;2023-02-17T21:29:48;27.48;;;17.90;;
25359;SDS011;13311;51.386;0.016;2023-02-17T21:34:49;21.38;;;14.95;;
25359;SDS011;13311;51.386;0.016;2023-02-17T21:39:50;21.98;;;16.95;;
25359;SDS011;13311;51.386;0.016;2023-02-17T21:44:50;22.60;;;15.05;;
25359;SDS011;13311;51.386;0.016;2023-02-17T21:49:52;24.73;;;17.08;;
25359;SDS011;13311;51.386;0.016;2023-02-17T21:54:53;23.20;;;17.73;;
25359;SDS011;13311;51.386;0.016;2023-02-17T21:59:54;24.67;;;16.88;;
25359;SDS011;13311;51.386;0.016;2023-02-17T22:04:55;24.70;;;15.80;;
25359;SDS011;13311;51.386;0.016;2023-02-17T22:09:56;21.50;;;15.85;;
25359;SDS011;13311;51.386;0.016;2023-02-17T22:14:58;22.50;;;17.70;;
25359;SDS011;13311;51.386;0.016;2023-02-17T22:19:59;17.83;;;13.50;;
25359;SDS011;13311;51.386;0.016;2023-02-17T22:24:59;21.02;;;15.00;;
25359;SDS011;13311;51.386;0.016;2023-02-17T22:30:00;18.05;;;13.43;;
25359;SDS011;13311;51.386;0.016;2023-02-17T22:35:01;18.27;;;12.50;;
25359;SDS011;13311;51.386;0.016;2023-02-17T22:40:04;14.27;;;10.55;;
25359;SDS011;13311;51.386;0.016;2023-02-17T22:45:06;14.27;;;10.32;;
25359;SDS011;13311;51.386;0.016;2023-02-17T22:50:07;10.18;;;8.45;;
25359;SDS011;13311;51.386;0.016;2023-02-17T22:55:08;13.65;;;8.73;;
25359;SDS011;13311;51.386;0.016;2023-02-17T23:00:09;10.93;;;8.43;;
25359;SDS011;13311;51.386;0.016;2023-02-17T23:05:11;10.68;;;8.05;;
25359;SDS011;13311;51.386;0.016;2023-02-17T23:10:11;8.43;;;6.45;;
25359;SDS011;13311;51.386;0.016;2023-02-17T23:15:12;8.10;;;5.90;;
25359;SDS011;13311;51.386;0.016;2023-02-17T23:20:13;7.53;;;5.03;;
25359;SDS011;13311;51.386;0.016;2023-02-17T23:25:14;10.65;;;6.07;;
25359;SDS011;13311;51.386;0.016;2023-02-17T23:30:16;10.65;;;5.45;;
25359;SDS011;13311;51.386;0.016;2023-02-17T23:35:19;9.00;;;4.80;;
25359;SDS011;13311;51.386;0.016;2023-02-17T23:40:21;8.40;;;4.53;;
25359;SDS011;13311;51.386;0.016;2023-02-17T23:45:22;7.18;;;3.88;;
25359;SDS011;13311;51.386;0.016;2023-02-17T23:50:23;3.67;;;2.28;;
25359;SDS011;13311;51.386;0.016;2023-02-17T23:55:24;4.88;;;2.70;;
